»·PEaware :: N2MA KHND-KSNA

N2MA :: KHND-KSNA

FLIGHT INFORMATION

Flight Status: Arrived
Operator: Privately registered:
United States
More flights under this callsign
Pilot: Andrew J. (13363)
Aircraft: Unknown
(TBM9)
More flights by this aircraft type
Origin: KHND Henderson
United States
Destination: KSNA John Wayne-Orange Co
United States
More flights between these airports :: More routes between these airports
Route: +PALLY5 WHIGG FEYLA DSNEE2
File this flight plan on PilotEdge
Remarks:
Altitude:
(Current/Filed)
26,000ft
Speed:
(Current/Filed)
470kts
Departed: 07-Jan-18 10:14 PM
Arrived: 07-Jan-18 11:09 PM
Distance/Time
Traveled:
194nm/0:55
Distance/Time
To Go:
Arrived

Flight Plot

Page will automatically refresh every two minutes.

Flight plan parsing failed; only flown route is shown


Map Options




Map Legend


Flown Route
Filed Route
Departure Airport
Arrival Airport
Navaid (VOR, NDB)
Fix

Horizontal Profiles

Position Reports

Time Latitude Longitude Heading Altitude Ground
Speed
07-Jan-18 21:49 35.975809 -115.137653 0 2446ft 0kts
07-Jan-18 21:50 35.975809 -115.137653 0 2446ft 0kts
07-Jan-18 21:51 35.975809 -115.137653 0 2446ft 0kts
07-Jan-18 21:52 35.975809 -115.137653 0 2446ft 0kts
07-Jan-18 21:53 35.975809 -115.137653 0 2446ft 0kts
07-Jan-18 21:54 35.975809 -115.137653 0 2446ft 0kts
07-Jan-18 21:55 35.975809 -115.137653 0 2446ft 0kts
07-Jan-18 21:56 35.975809 -115.137653 0 2446ft 0kts
07-Jan-18 21:57 35.975809 -115.137653 0 2446ft 0kts
07-Jan-18 21:58 35.975809 -115.137653 0 2446ft 0kts
07-Jan-18 21:59 35.975809 -115.137653 0 2446ft 0kts
07-Jan-18 22:00 35.975809 -115.137653 0 2446ft 0kts
07-Jan-18 22:01 35.975809 -115.137653 359 2446ft 0kts
07-Jan-18 22:02 35.975809 -115.137653 360 2446ft 0kts
07-Jan-18 22:03 35.975809 -115.137653 360 2446ft 0kts
07-Jan-18 22:04 35.975809 -115.137653 360 2447ft 0kts
07-Jan-18 22:05 35.975809 -115.137653 360 2447ft 0kts
07-Jan-18 22:06 35.975809 -115.137653 360 2447ft 0kts
07-Jan-18 22:07 35.975809 -115.137653 360 2447ft 0kts
07-Jan-18 22:08 35.975809 -115.137653 0 2447ft 0kts
07-Jan-18 22:09 35.975809 -115.137653 359 2447ft 0kts
07-Jan-18 22:10 35.975809 -115.137653 0 2447ft 0kts
07-Jan-18 22:11 35.975809 -115.137653 0 2447ft 0kts
07-Jan-18 22:12 35.975807 -115.137653 0 2446ft 0kts
07-Jan-18 22:13 35.975838 -115.137652 0 2447ft 3kts
07-Jan-18 22:14 35.976188 -115.136886 357 2447ft 0kts
07-Jan-18 22:15 35.979668 -115.136878 359 2447ft 25kts
07-Jan-18 22:16 35.980837 -115.136713 63 2446ft 3kts
07-Jan-18 22:17 35.980817 -115.136162 94 2447ft 0kts
07-Jan-18 22:18 35.980815 -115.136135 93 2447ft 0kts
07-Jan-18 22:19 35.980760 -115.135323 96 2447ft 0kts
07-Jan-18 22:20 35.971005 -115.135467 177 2633ft 113kts
07-Jan-18 22:21 35.939004 -115.143946 210 4690ft 133kts
07-Jan-18 22:22 35.913112 -115.163725 202 6568ft 130kts
07-Jan-18 22:23 35.859257 -115.157733 172 7019ft 202kts
07-Jan-18 22:24 35.800878 -115.161653 186 7001ft 217kts
07-Jan-18 22:25 35.752115 -115.196624 224 7985ft 203kts
07-Jan-18 22:26 35.718726 -115.239402 223 10784ft 164kts
07-Jan-18 22:27 35.692038 -115.273484 224 12540ft 170kts
07-Jan-18 22:28 35.660773 -115.315821 225 14840ft 168kts
07-Jan-18 22:29 35.624548 -115.365420 225 17141ft 168kts
07-Jan-18 22:30 35.598390 -115.401199 225 18699ft 173kts
07-Jan-18 22:31 35.566941 -115.444204 226 20915ft 171kts
07-Jan-18 22:32 35.535468 -115.487194 227 22962ft 171kts
07-Jan-18 22:33 35.503452 -115.530747 228 24884ft 174kts
07-Jan-18 22:34 35.470463 -115.575120 228 26243ft 197kts
07-Jan-18 22:35 35.428372 -115.631868 228 26207ft 244kts
07-Jan-18 22:36 35.388821 -115.685100 228 26208ft 257kts
07-Jan-18 22:37 35.340692 -115.749778 228 26199ft 263kts
07-Jan-18 22:38 35.291416 -115.815871 228 26192ft 265kts
07-Jan-18 22:39 35.242367 -115.881533 228 26185ft 265kts
07-Jan-18 22:40 35.193342 -115.944456 226 26180ft 265kts
07-Jan-18 22:41 35.143493 -116.007411 226 26180ft 265kts
07-Jan-18 22:42 35.092948 -116.071117 226 26180ft 266kts
07-Jan-18 22:43 35.042299 -116.134811 226 26178ft 266kts
07-Jan-18 22:44 34.994302 -116.195006 227 26184ft 266kts
07-Jan-18 22:45 34.942373 -116.260012 227 26184ft 268kts
07-Jan-18 22:46 34.898078 -116.315373 228 26175ft 270kts
07-Jan-18 22:47 34.857340 -116.367057 228 26166ft 272kts
07-Jan-18 22:48 34.804999 -116.433791 228 25792ft 280kts
07-Jan-18 22:49 34.750934 -116.502557 228 25147ft 274kts
07-Jan-18 22:50 34.699619 -116.567659 228 25151ft 265kts
07-Jan-18 22:51 34.641968 -116.625170 221 24445ft 276kts
07-Jan-18 22:52 34.594507 -116.671764 221 23595ft 282kts
07-Jan-18 22:53 34.538167 -116.726964 220 22613ft 286kts
07-Jan-18 22:54 34.478451 -116.790442 225 21413ft 291kts
07-Jan-18 22:55 34.420363 -116.857999 224 19858ft 292kts
07-Jan-18 22:56 34.365334 -116.921814 224 18228ft 291kts
07-Jan-18 22:57 34.307589 -116.988458 224 16247ft 290kts
07-Jan-18 22:58 34.246445 -117.048623 212 14286ft 293kts
07-Jan-18 22:59 34.183258 -117.094398 212 13559ft 277kts
07-Jan-18 23:00 34.124000 -117.128083 205 12613ft 277kts
07-Jan-18 23:01 34.056424 -117.164480 205 11991ft 268kts
07-Jan-18 23:02 33.993389 -117.203359 229 11989ft 256kts
07-Jan-18 23:03 33.954417 -117.257488 229 11516ft 269kts
07-Jan-18 23:04 33.905722 -117.325848 230 10990ft 263kts
07-Jan-18 23:05 33.863804 -117.384695 230 10988ft 257kts
07-Jan-18 23:06 33.819324 -117.448718 245 8574ft 254kts
07-Jan-18 23:07 33.800149 -117.518898 272 7738ft 220kts
07-Jan-18 23:08 33.802367 -117.595739 280 7498ft 240kts
07-Jan-18 23:09 33.823508 -117.662508 291 6548ft 254kts
07-Jan-18 23:10 33.831435 -117.737508 241 5216ft 237kts
07-Jan-18 23:11 33.796027 -117.794174 208 3788ft 200kts
07-Jan-18 23:12 33.752114 -117.820916 208 2605ft 172kts
07-Jan-18 23:13 33.714794 -117.843908 207 1112ft 139kts
07-Jan-18 23:14 33.686029 -117.862275 207 191ft 92kts
07-Jan-18 23:15 33.671012 -117.871813 205 59ft 30kts
07-Jan-18 23:16 33.668086 -117.871964 222 59ft 8kts
07-Jan-18 23:17 33.665487 -117.873537 149 59ft 7kts
07-Jan-18 23:18 33.665144 -117.873706 251 59ft 0kts
07-Jan-18 23:19 33.665144 -117.873706 251 59ft 0kts

Navigation Log

Ident Type
Flight plan parsing failed, navigation log unavailable